createdAt,value
2022-11-27T00:01:23.304Z,6.11
2022-11-27T00:03:50.532Z,6.12
2022-11-27T00:06:21.039Z,6.12
2022-11-27T00:08:48.026Z,6.08
2022-11-27T00:11:17.000Z,6.11
2022-11-27T00:13:43.885Z,6.10
2022-11-27T00:16:10.726Z,6.08
2022-11-27T00:18:37.672Z,6.09
2022-11-27T00:21:05.849Z,6.10
2022-11-27T00:23:33.569Z,6.07
2022-11-27T00:26:00.211Z,6.06
2022-11-27T00:28:26.702Z,6.03
2022-11-27T00:30:53.238Z,6.04
2022-11-27T00:33:19.722Z,5.99
2022-11-27T00:35:46.249Z,5.98
2022-11-27T00:38:12.672Z,5.98
2022-11-27T00:40:39.135Z,5.95
2022-11-27T00:43:05.584Z,5.94
2022-11-27T00:45:32.007Z,5.90
2022-11-27T00:47:58.485Z,5.87
2022-11-27T00:50:24.974Z,5.88
2022-11-27T00:52:51.406Z,5.85
2022-11-27T00:55:17.990Z,5.85
2022-11-27T00:57:44.496Z,5.82
2022-11-27T01:00:11.689Z,5.81
2022-11-27T01:02:38.251Z,5.75
2022-11-27T01:05:05.164Z,5.76
2022-11-27T01:07:31.717Z,5.74
2022-11-27T01:09:58.194Z,5.69
2022-11-27T01:12:24.652Z,5.71
2022-11-27T01:14:51.168Z,5.69
2022-11-27T01:17:18.336Z,5.69
2022-11-27T01:19:45.029Z,5.66
2022-11-27T01:22:11.604Z,5.65
2022-11-27T01:24:38.488Z,5.67
2022-11-27T01:27:05.185Z,5.67
2022-11-27T01:29:31.693Z,5.68
2022-11-27T01:31:58.160Z,5.69
2022-11-27T01:34:24.621Z,5.74
2022-11-27T01:36:51.084Z,5.76
2022-11-27T01:39:20.131Z,5.75
2022-11-27T01:41:48.320Z,5.78
2022-11-27T01:44:23.776Z,5.78
2022-11-27T01:47:19.620Z,5.79
2022-11-27T01:49:51.996Z,5.79
2022-11-27T01:52:41.116Z,5.81
2022-11-27T01:55:13.263Z,5.82
2022-11-27T01:57:53.497Z,5.79
2022-11-27T02:00:21.345Z,5.81
2022-11-27T02:02:47.917Z,5.79
2022-11-27T02:05:19.305Z,5.79
2022-11-27T02:07:47.168Z,5.81
2022-11-27T02:10:14.752Z,5.82
2022-11-27T02:12:47.317Z,5.81
2022-11-27T02:15:37.886Z,5.81
2022-11-27T02:18:19.344Z,5.80
2022-11-27T02:20:53.647Z,5.79
2022-11-27T02:23:41.491Z,5.77
2022-11-27T02:26:22.924Z,5.79
2022-11-27T02:29:08.041Z,5.76
2022-11-27T02:31:46.275Z,5.74
2022-11-27T02:34:26.959Z,5.73
2022-11-27T02:37:01.272Z,5.73
2022-11-27T02:39:34.940Z,5.71
2022-11-27T02:42:22.131Z,5.74
2022-11-27T02:45:12.139Z,5.75
2022-11-27T02:47:41.060Z,5.77
2022-11-27T02:50:15.241Z,5.78
2022-11-27T02:52:43.530Z,5.75
2022-11-27T02:55:15.364Z,5.77
2022-11-27T02:57:44.144Z,5.77
2022-11-27T03:00:11.829Z,5.75
2022-11-27T03:02:55.522Z,5.79
2022-11-27T03:05:27.132Z,5.80
2022-11-27T03:08:01.613Z,5.79
2022-11-27T03:10:43.433Z,5.82
2022-11-27T03:13:10.091Z,5.81
2022-11-27T03:15:49.757Z,5.82
2022-11-27T03:18:31.870Z,5.77
2022-11-27T03:21:15.336Z,5.80
2022-11-27T03:23:41.769Z,5.77
2022-11-27T03:26:08.388Z,5.80
2022-11-27T03:28:35.924Z,5.78
2022-11-27T03:31:02.467Z,5.79
2022-11-27T03:33:29.003Z,5.78
2022-11-27T03:35:55.417Z,5.80
2022-11-27T03:38:21.945Z,5.77
2022-11-27T03:41:06.901Z,5.78
2022-11-27T03:43:41.979Z,5.77
2022-11-27T03:46:23.871Z,5.78
2022-11-27T03:49:08.703Z,5.74
2022-11-27T03:52:00.547Z,5.75
2022-11-27T03:54:43.163Z,5.72
2022-11-27T03:57:22.241Z,5.70
2022-11-27T03:59:52.515Z,5.70
2022-11-27T04:02:31.406Z,5.68
2022-11-27T04:04:58.284Z,5.68
2022-11-27T04:07:24.856Z,5.67
2022-11-27T04:09:51.380Z,5.69
2022-11-27T04:12:17.774Z,5.69
2022-11-27T04:14:44.231Z,5.68
2022-11-27T04:17:10.674Z,5.64
2022-11-27T04:19:37.112Z,5.66
2022-11-27T04:22:03.615Z,5.66
2022-11-27T04:24:30.323Z,5.62
2022-11-27T04:26:56.776Z,5.66
2022-11-27T04:29:23.227Z,5.64
2022-11-27T04:31:49.718Z,5.64
2022-11-27T04:34:16.195Z,5.64
2022-11-27T04:36:42.836Z,5.66
2022-11-27T04:39:09.372Z,5.70
2022-11-27T04:41:35.838Z,5.68
2022-11-27T04:44:02.354Z,5.68
2022-11-27T04:46:28.851Z,5.67
2022-11-27T04:48:55.684Z,5.65
2022-11-27T04:51:22.205Z,5.63
2022-11-27T04:53:48.684Z,5.64
2022-11-27T04:56:15.163Z,5.65
2022-11-27T04:58:41.654Z,5.65
2022-11-27T05:01:09.103Z,5.63
2022-11-27T05:03:36.140Z,5.64
2022-11-27T05:06:03.485Z,5.63
2022-11-27T05:08:31.885Z,5.62
2022-11-27T05:11:04.024Z,5.66
2022-11-27T05:13:30.909Z,5.65
2022-11-27T05:15:57.704Z,5.64
2022-11-27T05:18:24.497Z,5.68
2022-11-27T05:21:05.575Z,5.68
2022-11-27T05:23:32.460Z,5.68
2022-11-27T05:25:59.384Z,5.71
2022-11-27T05:28:27.060Z,5.72
2022-11-27T05:30:53.743Z,5.73
2022-11-27T05:33:20.259Z,5.73
2022-11-27T05:35:46.732Z,5.78
2022-11-27T05:38:13.214Z,5.77
2022-11-27T05:40:39.910Z,5.76
2022-11-27T05:43:06.404Z,5.76
2022-11-27T05:45:32.844Z,5.79
2022-11-27T05:47:59.304Z,5.82
2022-11-27T05:50:25.772Z,5.83
2022-11-27T05:52:52.217Z,5.81
2022-11-27T05:55:18.653Z,5.79
2022-11-27T05:57:45.116Z,5.82
2022-11-27T06:00:12.357Z,5.82
2022-11-27T06:02:39.048Z,5.80
2022-11-27T06:05:06.128Z,5.78
2022-11-27T06:07:32.695Z,5.81
2022-11-27T06:09:59.189Z,5.78
2022-11-27T06:12:25.663Z,5.80
2022-11-27T06:14:52.140Z,5.78
2022-11-27T06:17:18.551Z,5.79
2022-11-27T06:19:45.035Z,5.77
2022-11-27T06:22:11.475Z,5.78
2022-11-27T06:24:38.095Z,5.76
2022-11-27T06:27:04.687Z,5.75
2022-11-27T06:29:31.203Z,5.74
2022-11-27T06:31:57.686Z,5.75
2022-11-27T06:34:24.176Z,5.75
2022-11-27T06:36:51.167Z,5.72
2022-11-27T06:39:17.810Z,5.74
2022-11-27T06:41:44.332Z,5.75
2022-11-27T06:44:10.849Z,5.72
2022-11-27T06:46:37.380Z,5.73
2022-11-27T06:49:03.983Z,5.74
2022-11-27T06:51:32.543Z,5.72
2022-11-27T06:54:00.433Z,5.75
2022-11-27T06:56:29.444Z,5.72
2022-11-27T06:58:58.624Z,5.74
2022-11-27T07:01:27.107Z,5.74
2022-11-27T07:03:53.968Z,5.76
2022-11-27T07:06:22.810Z,5.73
2022-11-27T07:08:49.702Z,5.73
2022-11-27T07:11:25.164Z,5.77
2022-11-27T07:13:54.215Z,5.75
2022-11-27T07:16:20.691Z,5.78
2022-11-27T07:18:50.930Z,5.78
2022-11-27T07:21:17.883Z,5.77
2022-11-27T07:23:45.490Z,5.76
2022-11-27T07:26:16.157Z,5.77
2022-11-27T07:28:43.849Z,5.77
2022-11-27T07:31:12.459Z,5.77
2022-11-27T07:33:39.160Z,5.75
2022-11-27T07:36:07.153Z,5.77
2022-11-27T07:38:34.182Z,5.75
2022-11-27T07:41:02.133Z,5.75
2022-11-27T07:43:29.590Z,5.73
2022-11-27T07:45:56.507Z,5.73
2022-11-27T07:48:23.009Z,5.76
2022-11-27T07:50:49.600Z,5.75
2022-11-27T07:53:16.325Z,5.76
2022-11-27T07:55:42.933Z,5.76
2022-11-27T07:58:09.459Z,5.78
2022-11-27T08:00:36.334Z,5.77
2022-11-27T08:03:03.523Z,5.73
2022-11-27T08:05:30.562Z,5.77
2022-11-27T08:08:00.191Z,5.80
2022-11-27T08:10:27.169Z,5.78
2022-11-27T08:12:53.677Z,5.81
2022-11-27T08:15:20.171Z,5.84
2022-11-27T08:17:46.756Z,5.83
2022-11-27T08:20:13.382Z,5.87
2022-11-27T08:22:39.783Z,5.87
2022-11-27T08:25:06.571Z,5.90
2022-11-27T08:27:33.537Z,5.88
2022-11-27T08:30:00.718Z,5.92
2022-11-27T08:32:27.221Z,5.95
2022-11-27T08:34:53.632Z,5.95
2022-11-27T08:37:20.144Z,5.95
2022-11-27T08:39:46.552Z,5.99
2022-11-27T08:42:13.103Z,6.01
2022-11-27T08:44:39.865Z,5.99
2022-11-27T08:47:06.520Z,6.01
2022-11-27T08:49:32.968Z,6.02
2022-11-27T08:51:59.481Z,6.02
2022-11-27T08:54:26.120Z,6.06
2022-11-27T08:56:52.826Z,6.04
2022-11-27T08:59:19.317Z,6.08
2022-11-27T09:01:45.898Z,6.10
2022-11-27T09:04:12.437Z,6.10
2022-11-27T09:06:40.818Z,6.12
2022-11-27T09:09:07.331Z,6.13
2022-11-27T09:11:34.873Z,6.17
2022-11-27T09:14:02.670Z,6.20
2022-11-27T09:16:30.598Z,6.21
2022-11-27T09:18:57.933Z,6.22
2022-11-27T09:21:30.284Z,6.23
2022-11-27T09:23:59.201Z,6.25
2022-11-27T09:26:27.041Z,6.27
2022-11-27T09:28:54.824Z,6.30
2022-11-27T09:31:22.792Z,6.29
2022-11-27T09:33:49.831Z,6.31
2022-11-27T09:36:23.120Z,6.31
2022-11-27T09:38:50.241Z,6.34
2022-11-27T09:41:19.552Z,6.38
2022-11-27T09:44:00.525Z,6.41
2022-11-27T09:46:33.414Z,6.44
2022-11-27T09:49:03.268Z,6.46
2022-11-27T09:51:29.731Z,6.52
2022-11-27T09:54:24.736Z,6.53
2022-11-27T09:56:53.504Z,6.54
2022-11-27T09:59:22.508Z,6.57
2022-11-27T10:01:51.190Z,6.57
2022-11-27T10:04:20.039Z,6.60
2022-11-27T10:07:22.008Z,6.63
2022-11-27T10:10:09.524Z,6.67
2022-11-27T10:12:43.006Z,6.70
2022-11-27T10:15:27.817Z,6.72
2022-11-27T10:18:40.934Z,6.73
2022-11-27T10:21:38.992Z,6.75
2022-11-27T10:24:19.945Z,6.79
2022-11-27T10:26:49.442Z,6.83
2022-11-27T10:29:36.297Z,6.87
2022-11-27T10:32:54.190Z,6.89
2022-11-27T10:35:17.145Z,6.85
2022-11-27T10:37:59.792Z,6.87
2022-11-27T10:40:38.690Z,6.90
2022-11-27T10:43:10.504Z,6.95
2022-11-27T10:45:44.378Z,6.95
2022-11-27T10:48:12.508Z,6.95
2022-11-27T10:50:39.723Z,7.03
2022-11-27T10:53:09.186Z,7.08
2022-11-27T10:55:56.884Z,7.08
2022-11-27T10:58:50.541Z,7.11
2022-11-27T11:01:19.776Z,7.17
2022-11-27T11:03:46.748Z,7.19
2022-11-27T11:06:22.399Z,7.23
2022-11-27T11:09:06.255Z,7.26
2022-11-27T11:11:32.785Z,7.26
2022-11-27T11:13:59.335Z,7.31
2022-11-27T11:16:34.748Z,7.36
2022-11-27T11:19:02.637Z,7.39
2022-11-27T11:21:33.079Z,7.41
2022-11-27T11:24:04.340Z,7.42
2022-11-27T11:26:50.518Z,7.45
2022-11-27T11:29:31.581Z,7.51
2022-11-27T11:32:03.481Z,7.55
2022-11-27T11:34:31.270Z,7.63
2022-11-27T11:37:00.182Z,7.68
2022-11-27T11:39:30.337Z,7.75
2022-11-27T11:41:57.493Z,7.78
2022-11-27T11:44:36.976Z,7.83
2022-11-27T11:47:03.465Z,7.86
2022-11-27T11:49:33.072Z,7.84
2022-11-27T11:52:37.008Z,7.88
2022-11-27T11:55:17.640Z,7.88
2022-11-27T11:57:52.953Z,7.85
2022-11-27T12:00:29.852Z,7.80
2022-11-27T12:03:13.229Z,7.81
2022-11-27T12:06:05.696Z,7.80
2022-11-27T12:08:44.194Z,7.86
2022-11-27T12:11:19.316Z,7.86
2022-11-27T12:13:59.364Z,7.91
2022-11-27T12:16:32.007Z,7.96
2022-11-27T12:19:32.125Z,7.99
2022-11-27T12:22:10.706Z,8.04
2022-11-27T12:25:08.144Z,8.06
2022-11-27T12:28:06.443Z,8.07
2022-11-27T12:30:40.386Z,8.08
2022-11-27T12:33:23.015Z,8.08
2022-11-27T12:36:02.525Z,8.07
2022-11-27T12:39:14.034Z,8.05
2022-11-27T12:42:07.252Z,7.99
2022-11-27T12:44:52.160Z,7.94
2022-11-27T12:47:42.460Z,7.92
2022-11-27T12:50:26.088Z,7.92
2022-11-27T12:53:08.572Z,7.94
2022-11-27T12:55:36.320Z,7.97
2022-11-27T12:58:20.807Z,8.02
2022-11-27T13:00:49.061Z,8.05
2022-11-27T13:03:25.018Z,8.06
2022-11-27T13:06:11.468Z,8.02
2022-11-27T13:08:40.580Z,7.98
2022-11-27T13:11:13.699Z,7.94
2022-11-27T13:13:50.331Z,7.91
2022-11-27T13:16:45.107Z,7.89
2022-11-27T13:19:33.089Z,7.90
2022-11-27T13:22:02.616Z,7.87
2022-11-27T13:24:29.654Z,7.84
2022-11-27T13:27:01.981Z,7.83
2022-11-27T13:29:40.487Z,7.80
2022-11-27T13:32:09.188Z,7.78
2022-11-27T13:34:44.617Z,7.75
2022-11-27T13:37:25.209Z,7.75
2022-11-27T13:40:00.104Z,7.73
2022-11-27T13:42:28.585Z,7.75
2022-11-27T13:44:59.640Z,7.77
2022-11-27T13:47:29.954Z,7.75
2022-11-27T13:50:05.970Z,7.70
2022-11-27T13:52:32.496Z,7.65
2022-11-27T13:55:01.806Z,7.61
2022-11-27T13:57:30.148Z,7.60
2022-11-27T13:59:59.900Z,7.57
2022-11-27T14:02:43.668Z,7.55
2022-11-27T14:05:12.437Z,7.55
2022-11-27T14:07:46.643Z,7.52
2022-11-27T14:10:26.640Z,7.53
2022-11-27T14:13:03.473Z,7.51
2022-11-27T14:15:32.488Z,7.45
2022-11-27T14:18:17.644Z,7.44
2022-11-27T14:20:51.394Z,7.43
2022-11-27T14:23:32.551Z,7.40
2022-11-27T14:26:15.219Z,7.41
2022-11-27T14:28:48.564Z,7.41
2022-11-27T14:31:30.416Z,7.42
2022-11-27T14:34:14.796Z,7.43
2022-11-27T14:36:42.746Z,7.43
2022-11-27T14:39:21.395Z,7.40
2022-11-27T14:41:58.597Z,7.37
2022-11-27T14:44:25.134Z,7.36
2022-11-27T14:46:52.184Z,7.35
2022-11-27T14:49:19.856Z,7.36
2022-11-27T14:51:47.099Z,7.38
2022-11-27T14:54:23.634Z,7.36
2022-11-27T14:56:50.402Z,7.36
2022-11-27T14:59:20.394Z,7.33
2022-11-27T15:02:06.846Z,7.28
2022-11-27T15:04:35.792Z,7.32
2022-11-27T15:07:06.918Z,7.28
2022-11-27T15:09:34.811Z,7.31
2022-11-27T15:12:08.516Z,7.27
2022-11-27T15:14:35.737Z,7.26
2022-11-27T15:17:02.266Z,7.29
2022-11-27T15:19:30.912Z,7.28
2022-11-27T15:21:57.918Z,7.25
2022-11-27T15:24:36.405Z,7.25
2022-11-27T15:27:15.150Z,7.27
2022-11-27T15:29:50.739Z,7.24
2022-11-27T15:32:24.004Z,7.20
2022-11-27T15:34:51.950Z,7.23
2022-11-27T15:37:21.270Z,7.22
2022-11-27T15:39:52.925Z,7.22
2022-11-27T15:42:20.397Z,7.22
2022-11-27T15:44:48.297Z,7.22
2022-11-27T15:47:34.076Z,7.21
2022-11-27T15:50:01.273Z,7.21
2022-11-27T15:52:27.939Z,7.22
2022-11-27T15:54:56.532Z,7.24
2022-11-27T15:57:24.373Z,7.24
2022-11-27T15:59:50.824Z,7.22
2022-11-27T16:02:18.353Z,7.25
2022-11-27T16:04:45.297Z,7.22
2022-11-27T16:07:11.816Z,7.24
2022-11-27T16:09:39.650Z,7.23
2022-11-27T16:12:06.636Z,7.26
2022-11-27T16:14:33.240Z,7.27
2022-11-27T16:17:01.233Z,7.28
2022-11-27T16:19:27.784Z,7.26
2022-11-27T16:21:54.800Z,7.29
2022-11-27T16:24:21.402Z,7.27
2022-11-27T16:26:47.973Z,7.29
2022-11-27T16:29:14.488Z,7.27
2022-11-27T16:31:41.335Z,7.31
2022-11-27T16:34:08.034Z,7.31
2022-11-27T16:36:34.792Z,7.32
2022-11-27T16:39:01.519Z,7.32
2022-11-27T16:41:28.230Z,7.34
2022-11-27T16:43:56.847Z,7.32
2022-11-27T16:46:26.335Z,7.35
2022-11-27T16:48:53.657Z,7.36
2022-11-27T16:51:25.827Z,7.37
2022-11-27T16:53:54.907Z,7.36
2022-11-27T16:56:24.655Z,7.35
2022-11-27T16:58:52.218Z,7.36
2022-11-27T17:01:24.967Z,7.31
2022-11-27T17:03:51.688Z,7.33
2022-11-27T17:06:24.619Z,7.32
2022-11-27T17:08:53.096Z,7.35
2022-11-27T17:11:22.509Z,7.33
2022-11-27T17:13:49.527Z,7.35
2022-11-27T17:16:16.095Z,7.34
2022-11-27T17:18:45.482Z,7.30
2022-11-27T17:21:16.604Z,7.30
2022-11-27T17:23:43.197Z,7.29
2022-11-27T17:26:12.036Z,7.26
2022-11-27T17:28:38.876Z,7.26
2022-11-27T17:31:23.044Z,7.23
2022-11-27T17:33:49.588Z,7.23
2022-11-27T17:36:16.224Z,7.20
2022-11-27T17:38:42.679Z,7.19
2022-11-27T17:41:13.503Z,7.16
2022-11-27T17:43:40.831Z,7.18
2022-11-27T17:46:13.645Z,7.16
2022-11-27T17:48:40.286Z,7.19
2022-11-27T17:51:07.268Z,7.19
2022-11-27T17:53:34.652Z,7.16
2022-11-27T17:56:08.089Z,7.16
2022-11-27T17:58:35.094Z,7.14
2022-11-27T18:01:02.147Z,7.12
2022-11-27T18:03:29.644Z,7.15
2022-11-27T18:05:56.889Z,7.12
2022-11-27T18:08:23.657Z,7.13
2022-11-27T18:10:50.232Z,7.12
2022-11-27T18:13:16.732Z,7.10
2022-11-27T18:15:44.019Z,7.08
2022-11-27T18:18:10.664Z,7.08
2022-11-27T18:20:37.261Z,7.04
2022-11-27T18:23:04.088Z,7.06
2022-11-27T18:25:30.901Z,7.05
2022-11-27T18:27:58.536Z,7.03
2022-11-27T18:30:25.746Z,7.00
2022-11-27T18:32:52.251Z,7.01
2022-11-27T18:35:18.873Z,6.99
2022-11-27T18:37:45.300Z,6.97
2022-11-27T18:40:12.868Z,6.94
2022-11-27T18:42:39.392Z,6.94
2022-11-27T18:45:06.876Z,6.90
2022-11-27T18:47:39.031Z,6.89
2022-11-27T18:50:06.299Z,6.92
2022-11-27T18:52:32.789Z,6.88
2022-11-27T18:54:59.275Z,6.89
2022-11-27T18:57:26.140Z,6.87
2022-11-27T18:59:52.671Z,6.86
2022-11-27T19:02:19.211Z,6.85
2022-11-27T19:04:46.000Z,6.87
2022-11-27T19:07:12.676Z,6.88
2022-11-27T19:09:39.832Z,6.87
2022-11-27T19:12:06.721Z,6.83
2022-11-27T19:14:33.384Z,6.80
2022-11-27T19:17:00.114Z,6.79
2022-11-27T19:19:53.454Z,6.80
2022-11-27T19:22:13.567Z,6.80
2022-11-27T19:24:40.074Z,6.81
2022-11-27T19:27:06.602Z,6.79
2022-11-27T19:29:33.176Z,6.80
2022-11-27T19:32:01.137Z,6.76
2022-11-27T19:34:27.782Z,6.77
2022-11-27T19:36:54.232Z,6.77
2022-11-27T19:39:20.706Z,6.76
2022-11-27T19:41:47.164Z,6.76
2022-11-27T19:44:13.678Z,6.73
2022-11-27T19:46:40.369Z,6.74
2022-11-27T19:49:11.097Z,6.71
2022-11-27T19:51:38.930Z,6.70
2022-11-27T19:54:09.979Z,6.70
2022-11-27T19:56:38.782Z,6.71
2022-11-27T19:59:06.186Z,6.70
2022-11-27T20:01:32.835Z,6.71
2022-11-27T20:03:59.958Z,6.70
2022-11-27T20:06:27.371Z,6.69
2022-11-27T20:09:03.454Z,6.69
2022-11-27T20:11:34.828Z,6.70
2022-11-27T20:14:04.048Z,6.68
2022-11-27T20:16:30.742Z,6.68
2022-11-27T20:18:57.332Z,6.72
2022-11-27T20:21:25.373Z,6.67
2022-11-27T20:23:53.012Z,6.71
2022-11-27T20:26:23.105Z,6.71
2022-11-27T20:28:51.231Z,6.68
2022-11-27T20:31:23.031Z,6.68
2022-11-27T20:33:55.422Z,6.70
2022-11-27T20:36:23.128Z,6.69
2022-11-27T20:38:50.454Z,6.67
2022-11-27T20:41:19.116Z,6.66
2022-11-27T20:43:45.788Z,6.70
2022-11-27T20:46:14.010Z,6.68
2022-11-27T20:48:40.649Z,6.69
2022-11-27T20:51:13.661Z,6.69
2022-11-27T20:53:41.023Z,6.66
2022-11-27T20:56:10.484Z,6.69
2022-11-27T20:58:38.982Z,6.69
2022-11-27T21:01:19.656Z,6.69
2022-11-27T21:03:47.604Z,6.70
2022-11-27T21:06:15.517Z,6.68
2022-11-27T21:08:42.433Z,6.66
2022-11-27T21:11:10.142Z,6.68
2022-11-27T21:13:37.178Z,6.66
2022-11-27T21:16:06.522Z,6.65
2022-11-27T21:18:33.005Z,6.64
2022-11-27T21:21:11.407Z,6.63
2022-11-27T21:23:41.665Z,6.63
2022-11-27T21:26:09.495Z,6.64
2022-11-27T21:28:36.035Z,6.64
2022-11-27T21:31:11.302Z,6.64
2022-11-27T21:33:37.928Z,6.65
2022-11-27T21:36:05.262Z,6.64
2022-11-27T21:38:31.744Z,6.65
2022-11-27T21:40:58.246Z,6.66
2022-11-27T21:43:24.683Z,6.66
2022-11-27T21:45:51.248Z,6.61
2022-11-27T21:48:18.381Z,6.62
2022-11-27T21:50:44.864Z,6.63
2022-11-27T21:53:11.579Z,6.67
2022-11-27T21:55:44.480Z,6.65
2022-11-27T21:58:11.565Z,6.65
2022-11-27T22:00:38.317Z,6.66
2022-11-27T22:03:04.923Z,6.68
2022-11-27T22:05:31.459Z,6.65
2022-11-27T22:07:58.032Z,6.68
2022-11-27T22:10:24.504Z,6.69
2022-11-27T22:12:50.981Z,6.68
2022-11-27T22:15:17.567Z,6.67
2022-11-27T22:17:44.059Z,6.70
2022-11-27T22:20:11.189Z,6.68
2022-11-27T22:22:37.632Z,6.69
2022-11-27T22:25:04.747Z,6.74
2022-11-27T22:27:31.366Z,6.75
2022-11-27T22:29:57.834Z,6.74
2022-11-27T22:32:24.321Z,6.76
2022-11-27T22:34:51.428Z,6.77
2022-11-27T22:37:17.905Z,6.77
2022-11-27T22:39:44.608Z,6.79
2022-11-27T22:42:12.060Z,6.80
2022-11-27T22:44:38.661Z,6.80
2022-11-27T22:47:05.288Z,6.80
2022-11-27T22:49:31.716Z,6.80
2022-11-27T22:51:58.139Z,6.78
2022-11-27T22:54:24.688Z,6.79
2022-11-27T22:56:51.192Z,6.82
2022-11-27T22:59:32.117Z,6.83
2022-11-27T23:01:59.913Z,6.83
2022-11-27T23:04:26.492Z,6.82
2022-11-27T23:06:52.968Z,6.83
2022-11-27T23:09:19.523Z,6.85
2022-11-27T23:11:46.701Z,6.89
2022-11-27T23:14:13.270Z,6.86
2022-11-27T23:16:40.000Z,6.88
2022-11-27T23:19:06.957Z,6.88
2022-11-27T23:21:37.364Z,6.85
2022-11-27T23:24:05.025Z,6.85
2022-11-27T23:26:32.400Z,6.85
2022-11-27T23:28:58.908Z,6.88
2022-11-27T23:31:30.302Z,6.85
2022-11-27T23:33:57.320Z,6.89
2022-11-27T23:36:23.812Z,6.89
2022-11-27T23:38:50.231Z,6.88
2022-11-27T23:41:22.189Z,6.88
2022-11-27T23:43:49.197Z,6.88
2022-11-27T23:46:17.762Z,6.84
2022-11-27T23:48:45.216Z,6.86
2022-11-27T23:51:14.336Z,6.87
2022-11-27T23:53:41.603Z,6.86
2022-11-27T23:56:11.105Z,6.89
2022-11-27T23:58:39.329Z,6.87
